Time;durP1;ratioP1;P1;durP2;ratioP2;P2;SDS_P1;SDS_P2;PMS_P1;PMS_P2;Temp;Humidity;BMP_temperature;BMP_pressure;BME280_temperature;BME280_humidity;BME280_pressure;Samples;Min_cycle;Max_cycle;Signal;HPM_P1;HPM_P2
2024/03/28 00:00:28;;;;;;;;;;;;;;;16.35;49.31;100144.00;5097467;28;1113;-47
2024/03/28 00:02:54;;;;;;;;;;;;;;;16.29;49.42;100150.63;5097471;28;1062;-48
2024/03/28 00:05:19;;;;;;;;;;;;;;;16.29;49.19;100161.63;5096611;28;1178;-49
2024/03/28 00:07:46;;;;;;;;;;;;;;;16.32;49.13;100154.75;5097336;28;1071;-49
2024/03/28 00:10:11;;;;;;;;;;;;;;;16.27;49.11;100155.59;5092096;28;1972;-47
2024/03/28 00:12:37;;;;;;;;;;;;;;;16.24;48.99;100147.94;5088649;28;1205;-48
2024/03/28 00:15:02;;;;;;;;;;;;;;;16.21;49.19;100149.31;5097097;28;1113;-47
2024/03/28 00:17:28;;;;;;;;;;;;;;;16.19;48.93;100145.25;5096216;28;1120;-46
2024/03/28 00:19:53;;;;;;;;;;;;;;;16.23;49.19;100146.31;5097307;28;1131;-48
2024/03/28 00:22:19;;;;;;;;;;;;;;;16.15;49.16;100136.75;5096750;28;1169;-46
2024/03/28 00:24:45;;;;;;;;;;;;;;;16.21;49.06;100130.13;5096689;28;1136;-48
2024/03/28 00:27:10;;;;;;;;;;;;;;;16.18;49.17;100121.66;5085996;28;1245;-49
2024/03/28 00:29:36;;;;;;;;;;;;;;;16.16;48.86;100118.38;5094445;28;1133;-49
2024/03/28 00:32:01;;;;;;;;;;;;;;;16.16;48.83;100118.38;5097295;28;1973;-47
2024/03/28 00:34:27;;;;;;;;;;;;;;;16.17;48.79;100109.03;5096239;28;1031;-44
2024/03/28 00:36:52;;;;;;;;;;;;;;;16.07;48.84;100108.03;5096360;28;1112;-48
2024/03/28 00:39:18;;;;;;;;;;;;;;;16.02;48.99;100110.81;5096894;28;1431;-49
2024/03/28 00:41:43;;;;;;;;;;;;;;;16.15;48.46;100105.78;5096903;28;1073;-49
2024/03/28 00:44:09;;;;;;;;;;;;;;;16.16;48.53;100099.16;5082857;28;1233;-48
2024/03/28 00:46:34;;;;;;;;;;;;;;;16.04;48.62;100100.34;5093885;28;1243;-47
2024/03/28 00:49:00;;;;;;;;;;;;;;;16.05;48.95;100096.53;5092451;28;1078;-48
2024/03/28 00:51:26;;;;;;;;;;;;;;;16.06;48.84;100092.69;5087147;28;1910;-45
2024/03/28 00:53:51;;;;;;;;;;;;;;;16.01;48.79;100100.94;5096574;28;1217;-48
2024/03/28 00:56:17;;;;;;;;;;;;;;;16.03;48.79;100100.66;5085843;28;1222;-49
2024/03/28 00:58:42;;;;;;;;;;;;;;;16.03;49.10;100096.00;5089009;28;1142;-45
2024/03/28 01:01:08;;;;;;;;;;;;;;;16.13;48.97;100094.25;5096616;28;1081;-49
2024/03/28 01:03:33;;;;;;;;;;;;;;;16.07;49.00;100091.59;5096578;28;1138;-47
2024/03/28 01:05:59;;;;;;;;;;;;;;;16.09;49.04;100094.03;5096505;28;1177;-46
2024/03/28 01:08:25;;;;;;;;;;;;;;;16.10;49.08;100098.38;5096083;28;1102;-45
2024/03/28 01:10:50;;;;;;;;;;;;;;;16.07;49.10;100085.25;5095741;28;1906;-46
2024/03/28 01:13:15;;;;;;;;;;;;;;;16.02;49.12;100091.63;5082707;28;1165;-43
2024/03/28 01:15:41;;;;;;;;;;;;;;;15.98;49.34;100087.81;5078169;28;1098;-48
2024/03/28 01:18:06;;;;;;;;;;;;;;;16.01;49.27;100079.00;5096366;28;1053;-47
2024/03/28 01:20:32;;;;;;;;;;;;;;;16.04;49.25;100078.41;5096221;28;1109;-47
2024/03/28 01:22:57;;;;;;;;;;;;;;;16.04;49.26;100081.16;5095560;28;1101;-46
2024/03/28 01:25:23;;;;;;;;;;;;;;;16.05;49.29;100077.31;5095867;28;1074;-44
2024/03/28 01:27:49;;;;;;;;;;;;;;;16.06;49.41;100076.22;5098464;28;1093;-47
2024/03/28 01:30:14;;;;;;;;;;;;;;;16.00;49.41;100071.88;5100168;28;1901;-44
2024/03/28 01:32:40;;;;;;;;;;;;;;;16.14;49.36;100072.03;5100608;28;1097;-47
2024/03/28 01:35:05;;;;;;;;;;;;;;;16.19;49.20;100073.94;5090726;28;1066;-46
2024/03/28 01:37:31;;;;;;;;;;;;;;;16.01;49.35;100068.03;5093476;28;1129;-49
2024/03/28 01:39:56;;;;;;;;;;;;;;;15.99;49.30;100064.78;5089813;28;1039;-46
2024/03/28 01:42:22;;;;;;;;;;;;;;;16.03;49.33;100060.34;5099993;28;1203;-48
2024/03/28 01:44:48;;;;;;;;;;;;;;;16.02;49.30;100072.41;5090149;28;1244;-47
2024/03/28 01:47:13;;;;;;;;;;;;;;;16.03;49.09;100060.34;5088813;28;1481;-49
2024/03/28 01:49:39;;;;;;;;;;;;;;;15.99;48.83;100059.28;5099329;28;1010;-46
2024/03/28 01:52:04;;;;;;;;;;;;;;;15.97;49.15;100049.69;5099899;28;2158;-47
2024/03/28 01:54:30;;;;;;;;;;;;;;;15.96;48.84;100048.88;5082279;28;1219;-50
2024/03/28 01:56:56;;;;;;;;;;;;;;;15.97;49.24;100055.19;5100071;28;1187;-49
2024/03/28 01:59:21;;;;;;;;;;;;;;;15.97;48.94;100061.47;5080863;28;929;-44
2024/03/28 02:01:47;;;;;;;;;;;;;;;15.98;49.07;100051.34;5099961;28;1046;-47
2024/03/28 02:04:13;;;;;;;;;;;;;;;15.96;49.00;100056.28;5081750;28;1122;-45
2024/03/28 02:06:38;;;;;;;;;;;;;;;15.95;49.14;100057.38;5081661;28;1105;-47
2024/03/28 02:09:05;;;;;;;;;;;;;;;16.00;49.07;100060.09;5099625;28;1141;-45
2024/03/28 02:11:30;;;;;;;;;;;;;;;16.01;48.95;100053.50;5081191;28;1910;-47
2024/03/28 02:13:56;;;;;;;;;;;;;;;15.98;49.23;100054.91;5100080;28;1054;-47
2024/03/28 02:16:21;;;;;;;;;;;;;;;16.03;49.16;100046.63;5099389;28;1146;-46
2024/03/28 02:18:47;;;;;;;;;;;;;;;16.07;49.00;100047.69;5099620;28;1241;-46
2024/03/28 02:21:12;;;;;;;;;;;;;;;16.02;49.26;100046.91;5099484;28;1103;-47
2024/03/28 02:23:38;;;;;;;;;;;;;;;15.96;49.31;100054.34;5099032;28;847;-45
2024/03/28 02:26:03;;;;;;;;;;;;;;;15.94;49.21;100053.84;5085746;28;1118;-46
2024/03/28 02:28:35;;;;;;;;;;;;;;;15.96;48.94;100051.59;5090463;28;1212;-45
2024/03/28 02:31:01;;;;;;;;;;;;;;;15.91;49.19;100046.19;5094720;28;1901;-48
2024/03/28 02:33:26;;;;;;;;;;;;;;;15.97;49.35;100045.03;5081002;28;1255;-43
2024/03/28 02:35:52;;;;;;;;;;;;;;;16.04;49.03;100045.50;5094120;28;1075;-48
2024/03/28 02:38:18;;;;;;;;;;;;;;;15.96;49.38;100040.63;5088872;28;1215;-43
2024/03/28 02:40:43;;;;;;;;;;;;;;;15.94;49.24;100033.84;5095165;28;1168;-45
2024/03/28 02:43:09;;;;;;;;;;;;;;;16.02;49.13;100031.28;5099163;28;1106;-48
2024/03/28 02:45:34;;;;;;;;;;;;;;;16.02;49.09;100024.97;5085419;28;956;-46
2024/03/28 02:48:00;;;;;;;;;;;;;;;16.07;49.33;100027.66;5096034;28;1681;-50
2024/03/28 02:50:25;;;;;;;;;;;;;;;16.07;49.00;100028.50;5097340;28;1910;-45
2024/03/28 02:52:51;;;;;;;;;;;;;;;16.03;49.28;100016.47;5098911;28;1117;-47
2024/03/28 02:55:16;;;;;;;;;;;;;;;16.02;49.59;100017.56;5085426;28;1185;-44
2024/03/28 02:57:42;;;;;;;;;;;;;;;16.05;49.40;100013.44;5092874;28;1580;-45
2024/03/28 03:00:09;;;;;;;;;;;;;;;16.00;49.29;100011.53;5092120;28;1011;-45
2024/03/28 03:02:34;;;;;;;;;;;;;;;15.96;49.46;100002.25;5098880;28;1146;-47
2024/03/28 03:05:00;;;;;;;;;;;;;;;16.00;49.11;100006.06;5098509;28;1069;-46
2024/03/28 03:07:25;;;;;;;;;;;;;;;15.99;48.89;100004.44;5098537;28;1174;-46
2024/03/28 03:09:51;;;;;;;;;;;;;;;16.01;48.85;100009.63;5098499;28;1189;-44
2024/03/28 03:12:16;;;;;;;;;;;;;;;15.95;49.11;100014.34;5093860;28;1914;-47
2024/03/28 03:14:42;;;;;;;;;;;;;;;16.02;49.02;100009.34;5096743;28;1069;-46
2024/03/28 03:17:09;;;;;;;;;;;;;;;15.98;49.11;100013.75;5086557;28;1062;-46
2024/03/28 03:19:36;;;;;;;;;;;;;;;16.01;49.20;100006.91;5097698;28;1081;-49
2024/03/28 03:22:02;;;;;;;;;;;;;;;15.98;49.43;99997.31;5098122;28;1081;-44
2024/03/28 03:24:34;;;;;;;;;;;;;;;16.01;49.43;99999.47;5096602;28;1153;-48
2024/03/28 03:27:01;;;;;;;;;;;;;;;16.07;49.35;100006.56;5098459;28;1042;-47
2024/03/28 03:34:54;;;;;;;;;;;;;;;16.11;49.20;100016.94;5098029;28;1019;-44
2024/03/28 03:37:21;;;;;;;;;;;;;;;16.08;49.33;100012.84;5092346;28;1133;-48
2024/03/28 03:39:47;;;;;;;;;;;;;;;16.05;49.59;100014.25;5097761;28;1069;-47
2024/03/28 03:42:14;;;;;;;;;;;;;;;16.12;49.28;99991.13;5097736;28;1070;-46
2024/03/28 03:44:39;;;;;;;;;;;;;;;16.07;49.40;100006.56;5097908;28;1035;-48
2024/03/28 03:47:05;;;;;;;;;;;;;;;16.08;49.17;100007.38;5096478;28;1093;-44
2024/03/28 03:49:31;;;;;;;;;;;;;;;16.12;49.21;100007.59;5077981;28;1043;-46
2024/03/28 03:51:56;;;;;;;;;;;;;;;16.11;49.48;99984.84;5091495;28;2008;-44
2024/03/28 03:54:22;;;;;;;;;;;;;;;16.19;49.34;99977.94;5096045;28;1546;-50
2024/03/28 03:56:47;;;;;;;;;;;;;;;16.19;49.19;99976.00;5093409;28;1046;-45
2024/03/28 03:59:13;;;;;;;;;;;;;;;16.12;49.65;99981.00;5090631;28;1217;-49
2024/03/28 04:01:38;;;;;;;;;;;;;;;16.12;49.38;99975.53;5085382;28;1031;-48
2024/03/28 04:04:04;;;;;;;;;;;;;;;16.10;49.79;99982.41;5097069;28;1126;-48
2024/03/28 04:06:30;;;;;;;;;;;;;;;16.06;49.57;99977.50;5097316;28;1041;-47
2024/03/28 04:08:55;;;;;;;;;;;;;;;16.16;49.45;99994.94;5097142;28;1033;-48
2024/03/28 04:11:21;;;;;;;;;;;;;;;16.17;49.23;99988.34;5095195;28;1905;-49
2024/03/28 04:13:46;;;;;;;;;;;;;;;16.12;49.49;99983.75;5082418;28;1317;-51
2024/03/28 04:16:12;;;;;;;;;;;;;;;16.18;49.30;99979.03;5094434;28;1046;-50
2024/03/28 04:18:37;;;;;;;;;;;;;;;16.24;49.01;99991.56;5089943;28;1300;-44
2024/03/28 04:21:03;;;;;;;;;;;;;;;16.15;49.16;99994.13;5094780;28;1241;-47
2024/03/28 04:23:28;;;;;;;;;;;;;;;16.13;49.33;100003.75;5092034;28;2450;-47
2024/03/28 04:25:56;;;;;;;;;;;;;;;16.14;49.18;100006.19;5084192;28;895;-47
2024/03/28 04:28:22;;;;;;;;;;;;;;;16.13;49.17;100014.72;5094827;28;1003;-47
2024/03/28 04:30:47;;;;;;;;;;;;;;;16.16;49.25;100014.97;5094453;28;1894;-49
2024/03/28 04:33:13;;;;;;;;;;;;;;;16.07;49.00;100001.06;5092430;28;1146;-43
2024/03/28 04:35:40;;;;;;;;;;;;;;;16.18;48.86;100011.94;5094009;28;1081;-47
2024/03/28 04:38:06;;;;;;;;;;;;;;;16.24;48.70;99997.88;5096398;28;1061;-47
2024/03/28 04:40:31;;;;;;;;;;;;;;;16.23;49.41;100001.72;5096755;28;1073;-49
2024/03/28 04:42:57;;;;;;;;;;;;;;;16.34;49.02;99990.63;5096454;28;1054;-49
2024/03/28 04:45:22;;;;;;;;;;;;;;;16.26;49.49;99994.84;5096391;28;1034;-45
2024/03/28 04:47:48;;;;;;;;;;;;;;;16.23;49.26;100003.66;5095602;28;1174;-51
2024/03/28 04:50:14;;;;;;;;;;;;;;;16.24;49.10;100022.56;5096538;28;1131;-47
2024/03/28 04:52:40;;;;;;;;;;;;;;;16.22;49.07;100018.47;5095681;28;1905;-49
2024/03/28 04:55:05;;;;;;;;;;;;;;;16.25;49.17;100006.94;5095284;28;2748;-47
2024/03/28 04:57:31;;;;;;;;;;;;;;;16.24;49.03;100010.78;5093142;28;1064;-48
2024/03/28 04:59:57;;;;;;;;;;;;;;;16.25;48.96;100006.94;5085049;28;1003;-48
2024/03/28 05:02:22;;;;;;;;;;;;;;;16.24;49.05;100005.28;5080444;28;1452;-50
2024/03/28 05:04:48;;;;;;;;;;;;;;;16.17;49.17;100010.28;5085886;28;1146;-48
2024/03/28 05:07:13;;;;;;;;;;;;;;;16.19;49.16;100005.34;5082274;28;1038;-45
2024/03/28 05:09:39;;;;;;;;;;;;;;;16.20;49.34;100006.97;5096049;28;1161;-46
2024/03/28 05:12:06;;;;;;;;;;;;;;;16.24;49.20;100006.13;5083965;28;1902;-46
2024/03/28 05:14:31;;;;;;;;;;;;;;;16.27;49.38;99996.50;5086493;28;1487;-45
2024/03/28 05:16:57;;;;;;;;;;;;;;;16.29;49.20;99990.72;5093026;28;1039;-46
2024/03/28 05:19:22;;;;;;;;;;;;;;;16.31;49.13;99992.03;5090833;28;1323;-45
2024/03/28 05:21:48;;;;;;;;;;;;;;;16.30;49.36;99998.66;5087347;28;1210;-46
2024/03/28 05:24:13;;;;;;;;;;;;;;;16.32;49.07;100001.09;5089394;28;2775;-44
2024/03/28 05:26:39;;;;;;;;;;;;;;;16.35;49.22;100016.97;5090050;28;1339;-47
2024/03/28 05:29:04;;;;;;;;;;;;;;;16.42;49.07;100011.97;5084666;28;943;-43
2024/03/28 05:31:32;;;;;;;;;;;;;;;16.36;49.42;100011.19;5090165;28;1902;-46
2024/03/28 05:33:57;;;;;;;;;;;;;;;16.36;49.18;100013.13;5076053;28;995;-45
2024/03/28 05:36:24;;;;;;;;;;;;;;;16.37;49.14;100012.03;5091297;28;1038;-49
2024/03/28 05:38:50;;;;;;;;;;;;;;;16.36;49.43;100008.44;5089456;28;1007;-44
2024/03/28 05:41:15;;;;;;;;;;;;;;;16.37;49.31;100009.28;5096135;28;1220;-48
2024/03/28 05:43:41;;;;;;;;;;;;;;;16.40;49.26;100001.28;5082401;28;1133;-47
2024/03/28 05:46:06;;;;;;;;;;;;;;;16.41;49.28;99999.34;5094820;28;1237;-45
2024/03/28 05:48:32;;;;;;;;;;;;;;;16.40;49.50;100000.47;5087493;28;1047;-49
2024/03/28 05:50:57;;;;;;;;;;;;;;;16.48;49.37;99982.53;5095928;28;1968;-46
2024/03/28 05:53:23;;;;;;;;;;;;;;;16.56;49.24;99985.47;5095861;28;2567;-47
2024/03/28 05:55:48;;;;;;;;;;;;;;;16.51;49.51;99992.91;5084679;28;1165;-48
2024/03/28 05:58:14;;;;;;;;;;;;;;;16.66;49.31;99995.50;5091135;28;1200;-49
2024/03/28 06:00:39;;;;;;;;;;;;;;;16.56;49.24;100010.16;5089926;28;1098;-49
2024/03/28 06:03:05;;;;;;;;;;;;;;;16.55;49.41;100015.94;5079609;28;1062;-46
2024/03/28 06:05:31;;;;;;;;;;;;;;;16.52;49.47;100011.03;5086809;28;1110;-47
2024/03/28 06:07:56;;;;;;;;;;;;;;;16.52;49.63;100002.78;5094485;28;1103;-46
2024/03/28 06:10:22;;;;;;;;;;;;;;;16.56;49.46;100006.59;5094817;28;1918;-51
2024/03/28 06:12:48;;;;;;;;;;;;;;;16.57;49.51;100002.75;5080396;28;1092;-49
2024/03/28 06:15:13;;;;;;;;;;;;;;;16.56;49.60;99995.63;5095299;28;1472;-48
2024/03/28 06:17:39;;;;;;;;;;;;;;;16.53;49.91;99993.47;5095945;28;1047;-50
2024/03/28 06:20:05;;;;;;;;;;;;;;;16.52;49.90;100000.88;5089669;28;1026;-52
2024/03/28 06:22:31;;;;;;;;;;;;;;;16.57;49.79;100003.56;5079383;28;1113;-48
2024/03/28 06:24:56;;;;;;;;;;;;;;;16.61;50.00;100003.78;5089119;28;2965;-49
2024/03/28 06:27:22;;;;;;;;;;;;;;;16.65;50.32;99993.88;5085596;28;1071;-51
2024/03/28 06:29:50;;;;;;;;;;;;;;;16.57;50.79;99978.84;5081347;28;1288;-49
2024/03/28 06:32:25;;;;;;;;;;;;;;;16.57;50.64;99983.53;5081161;28;1983;-48
2024/03/28 06:34:57;;;;;;;;;;;;;;;16.48;50.64;99985.28;5088123;28;1115;-47
2024/03/28 06:37:22;;;;;;;;;;;;;;;16.38;50.21;99997.19;5090657;28;1018;-49
2024/03/28 06:39:49;;;;;;;;;;;;;;;16.19;48.95;100016.31;5091339;28;1272;-47
2024/03/28 06:42:14;;;;;;;;;;;;;;;16.01;47.58;100018.66;5087394;28;998;-50
2024/03/28 06:44:43;;;;;;;;;;;;;;;15.72;46.83;100016.72;5095119;28;1397;-48
2024/03/28 06:47:09;;;;;;;;;;;;;;;15.64;46.65;100020.06;5082411;28;1219;-45
2024/03/28 06:49:34;;;;;;;;;;;;;;;15.59;46.41;100017.34;5090125;28;1593;-47
2024/03/28 06:52:00;;;;;;;;;;;;;;;15.62;46.59;100027.72;5098673;28;1906;-46
2024/03/28 06:54:25;;;;;;;;;;;;;;;15.54;46.07;100014.63;5098379;28;2855;-48
2024/03/28 06:56:51;;;;;;;;;;;;;;;15.45;46.01;100024.56;5083924;28;1214;-49
2024/03/28 06:59:16;;;;;;;;;;;;;;;15.48;45.51;100011.09;5084715;28;998;-43
2024/03/28 07:01:42;;;;;;;;;;;;;;;15.30;45.59;100012.59;5091936;28;1336;-47
2024/03/28 07:04:08;;;;;;;;;;;;;;;15.24;45.52;100016.47;5084563;28;1340;-43
2024/03/28 07:06:33;;;;;;;;;;;;;;;15.20;45.92;100015.41;5082946;28;1039;-48
2024/03/28 07:08:59;;;;;;;;;;;;;;;15.27;46.26;100015.09;5085369;28;1117;-48
2024/03/28 07:11:25;;;;;;;;;;;;;;;15.21;46.35;100011.56;5096665;28;1914;-48
2024/03/28 07:13:51;;;;;;;;;;;;;;;15.19;47.17;100008.28;5094673;28;1268;-45
2024/03/28 07:16:16;;;;;;;;;;;;;;;15.53;47.68;100018.50;5089127;28;1311;-43
2024/03/28 07:18:42;;;;;;;;;;;;;;;15.81;48.70;100016.09;5073092;28;1105;-40
2024/03/28 07:21:07;;;;;;;;;;;;;;;16.08;50.39;100035.59;5091663;28;1244;-43
2024/03/28 07:23:33;;;;;;;;;;;;;;;16.65;53.38;100025.97;5096564;28;1993;-47
2024/03/28 07:25:58;;;;;;;;;;;;;;;17.13;54.81;100042.44;5096844;28;1296;-46
2024/03/28 07:28:24;;;;;;;;;;;;;;;17.36;54.63;100040.75;5095447;28;1210;-44
2024/03/28 07:30:49;;;;;;;;;;;;;;;17.09;52.55;100041.41;5093188;28;1887;-45
2024/03/28 07:33:15;;;;;;;;;;;;;;;16.51;51.10;100042.31;5093662;28;1055;-45
2024/03/28 07:35:40;;;;;;;;;;;;;;;15.73;50.14;100037.50;5095051;28;1312;-46
2024/03/28 07:38:06;;;;;;;;;;;;;;;15.22;50.01;100041.41;5085050;28;1350;-45
2024/03/28 07:40:31;;;;;;;;;;;;;;;15.60;53.40;100056.50;5094736;28;1315;-48
2024/03/28 07:42:57;;;;;;;;;;;;;;;16.04;56.53;100051.00;5094639;28;1316;-47
2024/03/28 07:45:22;;;;;;;;;;;;;;;16.89;60.28;100053.47;5098219;28;1026;-49
2024/03/28 07:47:48;;;;;;;;;;;;;;;17.49;61.41;100060.34;5088552;28;1216;-47
2024/03/28 07:50:13;;;;;;;;;;;;;;;17.96;61.89;100050.31;5095072;28;1054;-48
2024/03/28 07:52:39;;;;;;;;;;;;;;;18.38;61.94;100061.44;5093565;28;1983;-46
2024/03/28 07:55:05;;;;;;;;;;;;;;;18.78;61.44;100053.53;5085496;28;2256;-46
2024/03/28 07:57:30;;;;;;;;;;;;;;;18.94;61.09;100049.38;5085435;28;1161;-46
2024/03/28 07:59:56;;;;;;;;;;;;;;;18.49;62.03;100046.34;5096315;28;1046;-47
2024/03/28 08:02:23;;;;;;;;;;;;;;;18.54;61.79;100039.94;5091698;28;903;-47
2024/03/28 08:04:49;;;;;;;;;;;;;;;17.60;60.71;100035.19;5091477;28;1280;-47
2024/03/28 08:07:15;;;;;;;;;;;;;;;16.89;59.95;100037.00;5086411;28;1250;-47
2024/03/28 08:09:41;;;;;;;;;;;;;;;16.96;61.32;100042.09;5086400;28;1277;-47
2024/03/28 08:12:08;;;;;;;;;;;;;;;16.86;61.69;100045.78;5091526;28;1972;-46
2024/03/28 08:14:33;;;;;;;;;;;;;;;16.89;63.56;100042.47;5082362;28;1355;-47
2024/03/28 08:17:00;;;;;;;;;;;;;;;17.26;63.26;100033.47;5097135;28;1359;-45
2024/03/28 08:19:26;;;;;;;;;;;;;;;17.42;62.21;100034.06;5094941;28;1002;-46
2024/03/28 08:21:51;;;;;;;;;;;;;;;17.58;61.77;100031.09;5086588;28;998;-46
2024/03/28 08:24:22;;;;;;;;;;;;;;;17.53;61.57;100031.16;5080462;28;2026;-45
2024/03/28 08:26:49;;;;;;;;;;;;;;;17.50;61.32;100040.00;5081017;28;1019;-44
2024/03/28 08:29:15;;;;;;;;;;;;;;;17.62;60.83;100037.63;5093516;28;1268;-46
2024/03/28 08:31:41;;;;;;;;;;;;;;;17.64;60.76;100032.63;5092749;28;1910;-45
2024/03/28 08:34:07;;;;;;;;;;;;;;;17.92;60.37;100035.53;5093290;28;1090;-46
2024/03/28 08:36:33;;;;;;;;;;;;;;;17.82;60.24;100025.47;5096264;28;1062;-46
2024/03/28 08:38:58;;;;;;;;;;;;;;;17.85;60.50;100024.91;5093159;28;943;-44
2024/03/28 08:41:24;;;;;;;;;;;;;;;17.77;60.54;100023.63;5096500;28;1260;-46
2024/03/28 08:43:50;;;;;;;;;;;;;;;17.84;60.41;100016.91;5096977;28;1010;-45
2024/03/28 08:46:17;;;;;;;;;;;;;;;18.01;59.69;100021.91;5096688;28;1203;-45
2024/03/28 08:48:46;;;;;;;;;;;;;;;17.88;60.23;100015.19;5091773;28;1311;-49
2024/03/28 08:51:17;;;;;;;;;;;;;;;18.05;59.65;100003.69;5089903;28;1945;-45
2024/03/28 08:53:42;;;;;;;;;;;;;;;18.15;59.38;100006.25;5096451;28;2487;-44
2024/03/28 08:56:08;;;;;;;;;;;;;;;18.06;59.32;100011.63;5083392;28;1050;-44
2024/03/28 08:58:34;;;;;;;;;;;;;;;18.23;58.76;100007.47;5085215;28;1285;-45
2024/03/28 09:01:00;;;;;;;;;;;;;;;18.07;58.77;100013.25;5094194;28;1380;-46
2024/03/28 09:03:26;;;;;;;;;;;;;;;17.58;60.12;100012.66;5083993;28;1052;-47
2024/03/28 09:05:52;;;;;;;;;;;;;;;17.76;59.53;100016.50;5096535;28;1181;-45
2024/03/28 09:08:19;;;;;;;;;;;;;;;18.08;58.24;100028.66;5077796;28;1129;-45
2024/03/28 09:10:54;;;;;;;;;;;;;;;18.01;58.45;100030.97;5088383;28;1981;-47
2024/03/28 09:13:19;;;;;;;;;;;;;;;18.07;58.05;100026.19;5087049;28;1312;-45
2024/03/28 09:15:45;;;;;;;;;;;;;;;18.25;56.85;100027.25;5079291;28;1022;-45
2024/03/28 09:18:11;;;;;;;;;;;;;;;17.97;57.37;100027.19;5092602;28;972;-45
2024/03/28 09:20:36;;;;;;;;;;;;;;;18.01;57.48;100028.22;5096230;28;1105;-45
2024/03/28 09:23:02;;;;;;;;;;;;;;;18.05;57.37;100029.25;5095872;28;1928;-48
2024/03/28 09:25:27;;;;;;;;;;;;;;;18.08;57.41;100036.09;5095167;28;1050;-47
2024/03/28 09:27:53;;;;;;;;;;;;;;;18.37;56.47;100041.34;5090692;28;909;-47
2024/03/28 09:30:18;;;;;;;;;;;;;;;18.22;56.91;100038.88;5085008;28;1086;-43
2024/03/28 09:32:45;;;;;;;;;;;;;;;18.30;56.68;100041.75;5095300;28;1981;-45
2024/03/28 09:35:11;;;;;;;;;;;;;;;18.15;57.09;100054.97;5086596;28;1193;-44
2024/03/28 09:37:36;;;;;;;;;;;;;;;18.39;56.25;100049.31;5080519;28;1132;-48
2024/03/28 09:40:03;;;;;;;;;;;;;;;18.16;57.30;100053.81;5086487;28;1402;-44
2024/03/28 09:42:29;;;;;;;;;;;;;;;18.41;56.36;100055.31;5081281;28;1078;-49
2024/03/28 09:44:54;;;;;;;;;;;;;;;18.25;56.51;100054.78;5084819;28;1082;-48
2024/03/28 09:47:20;;;;;;;;;;;;;;;18.36;56.13;100061.72;5094143;28;986;-45
2024/03/28 09:49:46;;;;;;;;;;;;;;;18.06;56.58;100058.41;5094015;28;1015;-44
2024/03/28 09:52:12;;;;;;;;;;;;;;;18.09;56.41;100073.47;5062396;28;1909;-44
2024/03/28 09:54:39;;;;;;;;;;;;;;;18.21;56.03;100073.00;5093450;28;2856;-44
2024/03/28 09:57:05;;;;;;;;;;;;;;;18.22;56.26;100071.91;5099730;28;1026;-47
2024/03/28 09:59:32;;;;;;;;;;;;;;;18.26;56.13;100083.94;5089986;28;1078;-44
2024/03/28 10:02:00;;;;;;;;;;;;;;;17.90;57.14;100084.50;5096777;28;1289;-43
2024/03/28 10:04:25;;;;;;;;;;;;;;;18.27;56.15;100083.63;5086961;28;1105;-43
2024/03/28 10:06:55;;;;;;;;;;;;;;;18.36;55.68;100072.75;5053061;28;1320;-45
2024/03/28 10:09:22;;;;;;;;;;;;;;;18.37;55.47;100068.88;5092883;28;1342;-47
2024/03/28 10:11:48;;;;;;;;;;;;;;;18.39;54.83;100072.13;5092145;28;1961;-46
2024/03/28 10:14:14;;;;;;;;;;;;;;;18.23;55.09;100073.50;5094422;28;1256;-45
2024/03/28 10:16:41;;;;;;;;;;;;;;;18.21;55.03;100065.56;5089297;28;1402;-45
2024/03/28 10:19:08;;;;;;;;;;;;;;;18.46;54.49;100074.50;5089729;28;1369;-47
2024/03/28 10:21:33;;;;;;;;;;;;;;;18.48;54.48;100080.50;5092195;28;1253;-44
2024/03/28 10:24:01;;;;;;;;;;;;;;;18.58;54.07;100085.00;5097460;28;2488;-47
2024/03/28 10:26:28;;;;;;;;;;;;;;;18.58;54.03;100074.81;5090416;28;1256;-47
2024/03/28 10:28:54;;;;;;;;;;;;;;;18.61;54.42;100067.91;5090718;28;1511;-51
2024/03/28 10:31:23;;;;;;;;;;;;;;;18.88;53.62;100071.81;5071471;28;1991;-48
2024/03/28 10:33:52;;;;;;;;;;;;;;;18.71;53.83;100067.69;5090957;28;1041;-50
2024/03/28 10:36:21;;;;;;;;;;;;;;;18.44;54.38;100057.47;5088822;28;1019;-47
2024/03/28 10:38:46;;;;;;;;;;;;;;;18.36;54.77;100056.22;5098082;28;1137;-47
2024/03/28 10:41:13;;;;;;;;;;;;;;;18.76;53.32;100039.22;5098027;28;1015;-46
2024/03/28 10:43:38;;;;;;;;;;;;;;;18.90;52.88;100042.00;5093812;28;1045;-46
2024/03/28 10:46:04;;;;;;;;;;;;;;;18.34;54.63;100036.47;5070742;28;1154;-45
2024/03/28 10:48:29;;;;;;;;;;;;;;;17.92;56.05;100027.28;5080682;28;1142;-49
2024/03/28 10:51:04;;;;;;;;;;;;;;;18.06;55.70;100014.38;5092436;28;1901;-48
2024/03/28 10:53:44;;;;;;;;;;;;;;;18.10;55.88;100015.41;5092944;28;1943;-43
2024/03/28 10:56:13;;;;;;;;;;;;;;;17.70;54.39;100014.97;5085976;28;2424;-45
2024/03/28 10:58:39;;;;;;;;;;;;;;;17.12;52.48;100016.06;5098064;28;1170;-47
2024/03/28 11:01:08;;;;;;;;;;;;;;;16.82;50.17;100015.34;5098114;28;1371;-47
2024/03/28 11:03:33;;;;;;;;;;;;;;;16.48;48.86;100009.97;5071081;28;1146;-44
2024/03/28 11:05:59;;;;;;;;;;;;;;;16.18;47.76;100017.44;5099064;28;1065;-44
2024/03/28 11:08:25;;;;;;;;;;;;;;;16.06;47.23;100015.06;5084899;28;1045;-46
2024/03/28 11:10:51;;;;;;;;;;;;;;;15.87;46.66;100021.25;5080143;28;1973;-48
2024/03/28 11:13:16;;;;;;;;;;;;;;;15.86;46.11;100011.38;5080734;28;1046;-49
2024/03/28 11:15:42;;;;;;;;;;;;;;;15.63;46.33;100018.41;5085445;28;1025;-48
2024/03/28 11:18:10;;;;;;;;;;;;;;;15.72;45.34;100026.84;5096028;28;1036;-47
2024/03/28 11:20:36;;;;;;;;;;;;;;;15.56;45.23;100034.34;5072831;28;1242;-50
2024/03/28 11:23:04;;;;;;;;;;;;;;;15.20;45.43;100031.84;5084631;28;948;-50
2024/03/28 11:25:34;;;;;;;;;;;;;;;14.59;46.12;100027.41;5078954;28;880;-45
2024/03/28 11:28:07;;;;;;;;;;;;;;;15.13;48.28;100031.34;5093219;28;855;-43
2024/03/28 11:30:37;;;;;;;;;;;;;;;16.14;53.10;100032.81;5097015;28;1258;-48
2024/03/28 11:33:10;;;;;;;;;;;;;;;16.87;56.21;100028.19;5088677;28;1236;-48
2024/03/28 11:35:41;;;;;;;;;;;;;;;17.49;58.22;100033.69;5097261;28;911;-50
2024/03/28 11:38:07;;;;;;;;;;;;;;;18.18;60.12;100032.34;5083260;28;1154;-53
2024/03/28 11:40:33;;;;;;;;;;;;;;;18.52;59.98;100036.66;5097343;28;1069;-46
2024/03/28 11:43:11;;;;;;;;;;;;;;;18.12;56.81;100017.88;5095384;28;1082;-48
2024/03/28 11:45:41;;;;;;;;;;;;;;;17.55;53.48;100028.94;5093978;28;1067;-46
2024/03/28 11:48:08;;;;;;;;;;;;;;;17.15;50.54;100025.66;5091408;28;1312;-52
2024/03/28 11:50:35;;;;;;;;;;;;;;;16.76;48.68;100005.56;5080465;28;1966;-52
2024/03/28 11:53:00;;;;;;;;;;;;;;;16.53;47.02;100026.38;5087868;28;1015;-46
2024/03/28 11:55:26;;;;;;;;;;;;;;;16.27;46.19;100014.88;5097128;28;1383;-48
2024/03/28 11:57:51;;;;;;;;;;;;;;;16.12;45.49;100030.38;5097353;28;1382;-45
2024/03/28 12:00:19;;;;;;;;;;;;;;;15.42;45.84;100034.19;5096513;28;1375;-48
2024/03/28 12:02:57;;;;;;;;;;;;;;;15.06;47.05;100035.19;5085055;28;1142;-47
2024/03/28 12:05:23;;;;;;;;;;;;;;;16.40;54.02;100025.97;5091077;28;1066;-47
2024/03/28 12:07:48;;;;;;;;;;;;;;;17.21;58.42;100019.81;5090865;28;1340;-48
2024/03/28 12:10:19;;;;;;;;;;;;;;;17.78;60.41;100025.28;5082631;28;1304;-49
2024/03/28 12:12:46;;;;;;;;;;;;;;;18.21;62.08;100020.72;5072133;28;1981;-53
2024/03/28 12:15:11;;;;;;;;;;;;;;;18.61;63.38;100018.34;5097027;28;1069;-48
2024/03/28 12:17:37;;;;;;;;;;;;;;;18.88;63.35;100017.53;5083449;28;1050;-48
2024/03/28 12:20:07;;;;;;;;;;;;;;;18.94;64.20;100015.47;5077400;28;1106;-48
2024/03/28 12:22:33;;;;;;;;;;;;;;;18.97;62.43;99995.56;5077326;28;1137;-47
2024/03/28 12:24:59;;;;;;;;;;;;;;;17.83;61.07;100007.06;5085150;28;1332;-50
2024/03/28 12:27:25;;;;;;;;;;;;;;;17.03;58.96;99999.44;5095099;28;1260;-51
2024/03/28 12:29:50;;;;;;;;;;;;;;;16.87;59.57;100008.97;5097058;28;1324;-49
2024/03/28 12:32:16;;;;;;;;;;;;;;;17.32;61.65;100001.25;5096026;28;1909;-47
2024/03/28 12:34:50;;;;;;;;;;;;;;;17.39;62.21;100012.69;5097297;28;1166;-48
2024/03/28 12:37:16;;;;;;;;;;;;;;;17.53;62.80;100025.66;5094741;28;1379;-48
2024/03/28 12:39:42;;;;;;;;;;;;;;;17.59;62.40;100003.28;5090177;28;1366;-48
2024/03/28 12:42:07;;;;;;;;;;;;;;;17.54;62.66;100025.34;5092869;28;1339;-48
2024/03/28 12:44:33;;;;;;;;;;;;;;;17.89;62.70;100023.19;5085318;28;1319;-47
2024/03/28 12:46:58;;;;;;;;;;;;;;;17.90;61.77;100015.72;5092139;28;943;-50